Time;durP1;ratioP1;P1;durP2;ratioP2;P2;SDS_P1;SDS_P2;PMS_P1;PMS_P2;Temp;Humidity;BMP_temperature;BMP_pressure;BME280_temperature;BME280_humidity;BME280_pressure;Samples;Min_cycle;Max_cycle;Signal;HPM_P1;HPM_P2
2021/08/01 00:00:08;;;;;;;3.60;3.00;;;;;;;;;;5056735;28;20404;-77
2021/08/01 00:02:34;;;;;;;10.63;3.33;;;;;;;;;;5056536;28;20453;-78
2021/08/01 00:05:00;;;;;;;7.17;3.50;;;;;;;;;;5056249;28;20864;-77
2021/08/01 00:07:26;;;;;;;4.67;3.57;;;;;;;;;;5056590;28;20581;-77
2021/08/01 00:10:03;;;;;;;4.63;3.30;;;;;;;;;;5056322;28;20507;-77
2021/08/01 00:12:29;;;;;;;6.07;3.30;;;;;;;;;;5056376;28;20457;-77
2021/08/01 00:14:55;;;;;;;6.90;3.43;;;;;;;;;;5056142;28;20431;-77
2021/08/01 00:17:21;;;;;;;3.50;3.00;;;;;;;;;;5056082;28;20412;-77
2021/08/01 00:19:48;;;;;;;5.80;3.20;;;;;;;;;;5056177;28;20422;-77
2021/08/01 00:22:13;;;;;;;5.47;4.03;;;;;;;;;;5056290;28;20753;-77
2021/08/01 00:24:40;;;;;;;5.13;3.90;;;;;;;;;;5055739;28;20522;-77
2021/08/01 00:27:06;;;;;;;4.20;3.27;;;;;;;;;;5054839;28;20430;-77
2021/08/01 00:29:32;;;;;;;8.43;4.20;;;;;;;;;;5055918;28;20915;-77
2021/08/01 00:32:02;;;;;;;5.43;3.83;;;;;;;;;;5056217;28;20414;-77
2021/08/01 00:34:28;;;;;;;6.87;3.93;;;;;;;;;;5055487;28;20514;-77
2021/08/01 00:36:54;;;;;;;7.90;3.80;;;;;;;;;;5056052;28;20379;-77
2021/08/01 00:39:20;;;;;;;6.53;4.23;;;;;;;;;;5054243;28;20442;-77
2021/08/01 00:41:46;;;;;;;6.13;3.97;;;;;;;;;;5055666;28;20495;-77
2021/08/01 00:44:12;;;;;;;6.50;3.70;;;;;;;;;;5055417;28;20936;-77
2021/08/01 00:46:40;;;;;;;4.93;4.10;;;;;;;;;;5055590;28;20455;-77
2021/08/01 00:49:06;;;;;;;5.63;4.07;;;;;;;;;;5055619;28;20378;-78
2021/08/01 00:51:35;;;;;;;6.77;4.40;;;;;;;;;;5055588;28;20416;-78
2021/08/01 00:54:01;;;;;;;7.00;4.53;;;;;;;;;;5053533;28;20416;-77
2021/08/01 00:56:28;;;;;;;5.23;4.70;;;;;;;;;;5054379;28;20427;-77
2021/08/01 00:58:54;;;;;;;6.87;5.10;;;;;;;;;;5055701;28;20398;-77
2021/08/01 01:01:23;;;;;;;8.33;5.30;;;;;;;;;;5055541;28;20427;-77
2021/08/01 01:04:09;;;;;;;6.97;5.27;;;;;;;;;;5053691;28;20920;-77
2021/08/01 01:09:43;;;;;;;5.50;4.03;;;;;;;;;;5055243;28;20387;-77
2021/08/01 01:12:13;;;;;;;8.50;4.60;;;;;;;;;;5055385;28;20401;-77
2021/08/01 01:14:43;;;;;;;9.00;4.90;;;;;;;;;;5054699;28;20420;-77
2021/08/01 01:17:11;;;;;;;5.33;4.80;;;;;;;;;;5055168;28;20450;-77
2021/08/01 01:19:59;;;;;;;7.57;5.53;;;;;;;;;;5055165;28;20400;-77
2021/08/01 01:22:47;;;;;;;6.67;5.60;;;;;;;;;;5055241;28;20436;-77
2021/08/01 01:25:33;;;;;;;5.70;4.37;;;;;;;;;;5054883;28;20428;-77
2021/08/01 01:28:09;;;;;;;6.50;5.03;;;;;;;;;;5054851;28;20420;-77
2021/08/01 01:30:37;;;;;;;12.47;5.07;;;;;;;;;;5054871;28;20388;-78
2021/08/01 01:33:11;;;;;;;6.90;4.50;;;;;;;;;;5054580;28;20411;-77
2021/08/01 01:35:39;;;;;;;4.90;4.00;;;;;;;;;;5054704;28;20410;-77
2021/08/01 01:38:05;;;;;;;6.93;4.63;;;;;;;;;;5054541;28;20463;-77
2021/08/01 01:40:31;;;;;;;5.10;4.43;;;;;;;;;;5054626;28;20425;-77
2021/08/01 01:42:58;;;;;;;6.10;4.00;;;;;;;;;;5054391;28;20382;-77
2021/08/01 01:45:25;;;;;;;4.93;3.80;;;;;;;;;;5054536;28;20435;-77
2021/08/01 01:47:51;;;;;;;4.87;3.80;;;;;;;;;;5054533;28;20391;-77
2021/08/01 01:50:17;;;;;;;5.20;4.07;;;;;;;;;;5054433;28;20461;-77
2021/08/01 01:52:48;;;;;;;7.67;4.27;;;;;;;;;;5054144;28;20416;-88
2021/08/01 01:55:15;;;;;;;5.07;3.60;;;;;;;;;;5053162;28;20440;-77
2021/08/01 01:57:41;;;;;;;5.07;3.47;;;;;;;;;;5054460;28;20383;-77
2021/08/01 02:00:08;;;;;;;6.47;3.70;;;;;;;;;;5054226;28;20758;-77
2021/08/01 02:02:36;;;;;;;4.03;3.40;;;;;;;;;;5054305;28;20995;-76
2021/08/01 02:11:27;;;;;;;;;;;;;;;;;;;;;
2021/08/01 02:16:44;;;;;;;5.07;4.60;;;;;;;;;;5071635;22;20495;-77
2021/08/01 02:19:47;;;;;;;7.67;4.87;;;;;;;;;;5054069;28;20455;-77
2021/08/01 02:22:38;;;;;;;5.93;5.07;;;;;;;;;;5035278;28;20424;-77
2021/08/01 02:25:29;;;;;;;5.13;4.30;;;;;;;;;;5052896;28;20527;-77
2021/08/01 02:34:49;;;;;;;9.13;4.90;;;;;;;;;;4991762;28;20411;-77
2021/08/01 02:37:32;;;;;;;4.93;4.50;;;;;;;;;;5053882;28;20738;-77
2021/08/01 02:41:16;;;;;;;;;;;;;;;;;;;;;
2021/08/01 02:43:31;;;;;;;7.57;4.57;;;;;;;;;;5042194;28;20450;-77
2021/08/01 02:45:57;;;;;;;8.47;4.83;;;;;;;;;;5053367;28;20430;-77
2021/08/01 02:51:35;;;;;;;5.07;4.50;;;;;;;;;;4991749;28;20517;-77
2021/08/01 02:54:23;;;;;;;5.07;4.57;;;;;;;;;;5035609;28;20421;-79
2021/08/01 02:57:38;;;;;;;;;;;;;;;;;;;;;
2021/08/01 03:00:29;;;;;;;7.30;5.53;;;;;;;;;;4991383;28;20430;-77
2021/08/01 03:06:44;;;;;;;4.90;4.50;;;;;;;;;;5030424;28;20464;-77
2021/08/01 03:09:21;;;;;;;7.40;5.17;;;;;;;;;;5018923;28;20413;-77
2021/08/01 03:11:53;;;;;;;5.20;4.70;;;;;;;;;;5014564;28;20428;-76
2021/08/01 03:14:30;;;;;;;6.57;4.57;;;;;;;;;;5030531;28;20445;-77
2021/08/01 03:16:58;;;;;;;8.00;6.07;;;;;;;;;;5030946;28;20487;-77
2021/08/01 03:19:27;;;;;;;6.80;5.77;;;;;;;;;;5030875;28;20428;-77
2021/08/01 03:21:53;;;;;;;8.60;5.43;;;;;;;;;;5046519;28;20404;-77
2021/08/01 03:24:19;;;;;;;8.07;5.57;;;;;;;;;;5136739;22;20709;31
2021/08/01 03:26:47;;;;;;;10.47;6.37;;;;;;;;;;5051404;28;20486;-77
2021/08/01 03:29:13;;;;;;;12.20;6.23;;;;;;;;;;5053008;28;20786;-77
2021/08/01 03:31:39;;;;;;;10.30;6.83;;;;;;;;;;5052920;28;20382;-77
2021/08/01 03:34:05;;;;;;;9.57;6.57;;;;;;;;;;5052744;28;20418;-77
2021/08/01 03:36:34;;;;;;;9.50;7.73;;;;;;;;;;5053040;28;20412;-77
2021/08/01 03:39:01;;;;;;;10.50;7.93;;;;;;;;;;5052996;28;20420;-77
2021/08/01 03:41:28;;;;;;;8.07;6.87;;;;;;;;;;5053002;28;20408;-77
2021/08/01 03:43:58;;;;;;;12.60;8.90;;;;;;;;;;5052808;28;20420;-77
2021/08/01 03:46:24;;;;;;;9.30;7.53;;;;;;;;;;5052786;28;20437;-77
2021/08/01 03:48:50;;;;;;;8.87;7.70;;;;;;;;;;5051419;28;20506;-78
2021/08/01 03:51:16;;;;;;;8.90;6.80;;;;;;;;;;5051372;28;20403;-77
2021/08/01 03:53:42;;;;;;;7.33;6.57;;;;;;;;;;5052569;28;20407;-77
2021/08/01 03:56:10;;;;;;;7.47;6.70;;;;;;;;;;5052746;28;20483;-77
2021/08/01 03:58:36;;;;;;;9.57;7.27;;;;;;;;;;5052914;28;20811;-77
2021/08/01 04:01:05;;;;;;;9.10;6.83;;;;;;;;;;5052648;28;20394;-77
2021/08/01 04:03:31;;;;;;;10.57;7.70;;;;;;;;;;5052440;28;20416;-77
2021/08/01 04:05:57;;;;;;;12.53;7.07;;;;;;;;;;5052513;28;21030;-77
2021/08/01 04:08:23;;;;;;;13.67;8.30;;;;;;;;;;5052617;28;20429;-77
2021/08/01 04:10:49;;;;;;;12.70;8.50;;;;;;;;;;5052905;28;20383;-77
2021/08/01 04:13:20;;;;;;;7.13;6.43;;;;;;;;;;5052423;28;20374;-77
2021/08/01 04:15:46;;;;;;;9.97;7.33;;;;;;;;;;5052519;28;20421;-77
2021/08/01 04:18:15;;;;;;;10.37;8.00;;;;;;;;;;5052549;28;20418;-77
2021/08/01 04:20:41;;;;;;;9.40;7.43;;;;;;;;;;5052612;28;20411;-77
2021/08/01 04:23:07;;;;;;;10.73;7.70;;;;;;;;;;5052257;28;20499;-82
2021/08/01 04:25:33;;;;;;;9.47;7.70;;;;;;;;;;5052379;28;20579;-77
2021/08/01 04:27:59;;;;;;;11.53;8.40;;;;;;;;;;5053968;28;20389;-77
2021/08/01 04:30:28;;;;;;;10.87;7.30;;;;;;;;;;5054799;28;20892;-77
2021/08/01 04:32:54;;;;;;;12.43;7.30;;;;;;;;;;5055893;28;20416;-77
2021/08/01 04:35:20;;;;;;;11.53;7.50;;;;;;;;;;5055794;28;20432;-77
2021/08/01 04:37:46;;;;;;;9.90;7.23;;;;;;;;;;5055928;28;20412;-77
2021/08/01 04:40:12;;;;;;;9.90;7.60;;;;;;;;;;5055997;28;20419;-77
2021/08/01 04:42:38;;;;;;;11.57;7.10;;;;;;;;;;5055715;28;20412;-77
2021/08/01 04:47:40;;;;;;;9.87;6.70;;;;;;;;;;5111063;22;20560;-77
2021/08/01 04:50:06;;;;;;;17.40;7.13;;;;;;;;;;5055600;28;20420;-77
2021/08/01 04:52:32;;;;;;;12.17;7.30;;;;;;;;;;5054190;28;20402;-84
2021/08/01 04:54:58;;;;;;;12.70;7.03;;;;;;;;;;5054066;28;20448;-76
2021/08/01 04:57:24;;;;;;;8.57;6.20;;;;;;;;;;5055350;28;20508;-77
2021/08/01 04:59:50;;;;;;;13.20;6.87;;;;;;;;;;5055409;28;20420;-76
2021/08/01 05:02:16;;;;;;;12.80;7.13;;;;;;;;;;5055441;28;20917;-77
2021/08/01 05:04:42;;;;;;;10.97;7.50;;;;;;;;;;5055269;28;20436;-76
2021/08/01 05:07:08;;;;;;;7.13;6.43;;;;;;;;;;5055340;28;20475;-77
2021/08/01 05:09:34;;;;;;;12.03;7.30;;;;;;;;;;5055202;28;20415;-77
2021/08/01 05:12:00;;;;;;;13.60;7.13;;;;;;;;;;5055199;28;20408;-76
2021/08/01 05:14:29;;;;;;;10.67;7.60;;;;;;;;;;5053933;28;20444;-77
2021/08/01 05:16:55;;;;;;;11.00;8.03;;;;;;;;;;5055115;28;20403;-77
2021/08/01 05:19:21;;;;;;;12.87;6.90;;;;;;;;;;5055200;28;20416;-77
2021/08/01 05:21:47;;;;;;;6.93;6.23;;;;;;;;;;5054912;28;20482;-77
2021/08/01 05:24:13;;;;;;;10.00;7.40;;;;;;;;;;5054912;28;20420;-77
2021/08/01 05:26:39;;;;;;;11.17;8.03;;;;;;;;;;5054818;28;20458;-77
2021/08/01 05:29:06;;;;;;;11.63;7.87;;;;;;;;;;5054942;28;20759;-77
2021/08/01 05:31:32;;;;;;;10.40;7.47;;;;;;;;;;5054921;28;20412;-77
2021/08/01 05:33:58;;;;;;;10.20;6.80;;;;;;;;;;5054478;28;20408;-77
2021/08/01 05:36:24;;;;;;;12.50;7.43;;;;;;;;;;5054692;28;20436;-76
2021/08/01 05:38:50;;;;;;;10.10;7.10;;;;;;;;;;5053809;28;20395;-76
2021/08/01 05:41:16;;;;;;;12.67;9.00;;;;;;;;;;5053175;28;20903;-77
2021/08/01 05:43:42;;;;;;;11.73;7.13;;;;;;;;;;5054348;28;20386;-77
2021/08/01 05:46:11;;;;;;;10.40;7.00;;;;;;;;;;5054209;28;20792;-77
2021/08/01 05:48:38;;;;;;;11.40;6.80;;;;;;;;;;5054576;28;20436;-77
2021/08/01 05:51:10;;;;;;;12.30;8.13;;;;;;;;;;5054582;28;20797;-77
2021/08/01 05:53:36;;;;;;;11.50;6.43;;;;;;;;;;5054135;28;20413;-77
2021/08/01 05:56:08;;;;;;;13.40;7.33;;;;;;;;;;5054285;28;20428;-76
2021/08/01 05:58:37;;;;;;;13.67;8.90;;;;;;;;;;5054440;28;20405;-76
2021/08/01 06:01:29;;;;;;;9.60;7.47;;;;;;;;;;5054333;28;20408;-76
2021/08/01 06:03:55;;;;;;;16.27;7.67;;;;;;;;;;5051553;28;20419;-76
2021/08/01 06:06:25;;;;;;;10.90;7.50;;;;;;;;;;5054081;28;20621;-76
2021/08/01 06:08:51;;;;;;;10.43;7.73;;;;;;;;;;5054459;28;20424;-76
2021/08/01 06:11:18;;;;;;;12.20;8.37;;;;;;;;;;5054095;28;20438;-76
2021/08/01 06:13:45;;;;;;;12.10;7.20;;;;;;;;;;5052497;28;20950;-77
2021/08/01 06:16:12;;;;;;;9.70;7.67;;;;;;;;;;5053784;28;20428;-76
2021/08/01 06:18:38;;;;;;;16.93;7.33;;;;;;;;;;5053814;28;20482;-76
2021/08/01 06:21:08;;;;;;;12.23;7.50;;;;;;;;;;5053798;28;20817;-77
2021/08/01 06:23:35;;;;;;;8.80;6.60;;;;;;;;;;5053601;28;20420;-76
2021/08/01 06:26:01;;;;;;;8.80;6.23;;;;;;;;;;5053737;28;20526;-77
2021/08/01 06:28:27;;;;;;;13.70;7.63;;;;;;;;;;5053790;28;20829;-77
2021/08/01 06:30:53;;;;;;;8.23;6.60;;;;;;;;;;5052455;28;20442;-77
2021/08/01 06:33:19;;;;;;;8.87;6.63;;;;;;;;;;5052174;28;20493;-76
2021/08/01 06:35:51;;;;;;;9.80;5.73;;;;;;;;;;5053445;28;20436;-77
2021/08/01 06:38:17;;;;;;;9.90;6.20;;;;;;;;;;5053471;28;20431;-77
2021/08/01 06:40:43;;;;;;;10.37;7.03;;;;;;;;;;5053500;28;20408;-76
2021/08/01 06:43:09;;;;;;;8.27;6.10;;;;;;;;;;5053277;28;20416;-76
2021/08/01 06:45:35;;;;;;;12.13;6.20;;;;;;;;;;5053255;28;20458;-77
2021/08/01 06:48:01;;;;;;;15.97;6.93;;;;;;;;;;5053468;28;20517;-77
2021/08/01 06:50:27;;;;;;;10.33;6.67;;;;;;;;;;5052977;28;20415;-76
2021/08/01 06:52:53;;;;;;;12.53;8.33;;;;;;;;;;5053078;28;20440;-77
2021/08/01 06:55:19;;;;;;;9.93;5.50;;;;;;;;;;5051908;28;20486;-76
2021/08/01 06:57:45;;;;;;;11.30;5.30;;;;;;;;;;5053205;28;20900;-76
2021/08/01 07:00:11;;;;;;;7.23;5.47;;;;;;;;;;5053217;28;20419;-77
2021/08/01 07:02:37;;;;;;;10.20;6.17;;;;;;;;;;5053249;28;20761;-76
2021/08/01 07:05:04;;;;;;;9.43;5.40;;;;;;;;;;5052841;28;20410;-77
2021/08/01 07:07:30;;;;;;;8.90;5.60;;;;;;;;;;5053316;28;20459;-77
2021/08/01 07:09:56;;;;;;;7.80;5.40;;;;;;;;;;5053138;28;20383;-76
2021/08/01 07:12:22;;;;;;;13.03;5.83;;;;;;;;;;5053268;28;20419;-79
2021/08/01 07:14:48;;;;;;;6.60;4.40;;;;;;;;;;5052613;28;20432;-76
2021/08/01 07:17:14;;;;;;;6.93;5.13;;;;;;;;;;5053129;28;20411;-77
2021/08/01 07:19:40;;;;;;;9.03;5.40;;;;;;;;;;5053068;28;20755;-77
2021/08/01 07:22:06;;;;;;;8.13;5.80;;;;;;;;;;5053055;28;20416;-83
2021/08/01 07:24:35;;;;;;;7.87;5.00;;;;;;;;;;5051277;28;20447;-83
2021/08/01 07:27:01;;;;;;;8.60;5.20;;;;;;;;;;5052904;28;20542;-79
2021/08/01 07:29:27;;;;;;;9.03;5.13;;;;;;;;;;5052889;28;20514;-79
2021/08/01 07:31:55;;;;;;;11.60;6.10;;;;;;;;;;5053052;28;20819;-80
2021/08/01 07:34:21;;;;;;;5.20;4.70;;;;;;;;;;5051157;28;20423;-80
2021/08/01 07:36:47;;;;;;;15.40;4.87;;;;;;;;;;5051707;28;20410;-79
2021/08/01 07:39:13;;;;;;;7.17;4.63;;;;;;;;;;5052906;28;20412;-80
2021/08/01 07:41:39;;;;;;;12.10;5.20;;;;;;;;;;5052551;28;20390;-80
2021/08/01 07:44:05;;;;;;;9.73;5.10;;;;;;;;;;5051631;28;20434;-79
2021/08/01 07:46:31;;;;;;;6.97;4.63;;;;;;;;;;5052266;28;20459;-79
2021/08/01 07:48:57;;;;;;;12.57;4.90;;;;;;;;;;5052781;28;20915;-79
2021/08/01 07:51:25;;;;;;;6.40;4.33;;;;;;;;;;5052512;28;20447;-78
2021/08/01 07:53:51;;;;;;;13.23;5.40;;;;;;;;;;5052531;28;20431;-77
2021/08/01 07:56:17;;;;;;;5.63;3.93;;;;;;;;;;5052709;28;20407;-77
2021/08/01 07:58:43;;;;;;;9.67;4.67;;;;;;;;;;5052569;28;20391;-78
2021/08/01 08:01:09;;;;;;;8.53;3.87;;;;;;;;;;5052542;28;20416;-76
2021/08/01 08:03:35;;;;;;;9.50;3.40;;;;;;;;;;5055043;28;20438;-76
2021/08/01 08:06:05;;;;;;;7.10;3.67;;;;;;;;;;5056490;28;20455;-76
2021/08/01 08:08:31;;;;;;;6.03;3.43;;;;;;;;;;5056641;28;20374;-77
2021/08/01 08:10:57;;;;;;;5.30;2.57;;;;;;;;;;5056217;28;20404;-77
2021/08/01 08:13:23;;;;;;;3.90;2.83;;;;;;;;;;5056087;28;20465;-77
2021/08/01 08:15:49;;;;;;;4.20;2.63;;;;;;;;;;5056195;28;20421;-76
2021/08/01 08:18:15;;;;;;;6.40;3.50;;;;;;;;;;5056239;28;20386;-77
2021/08/01 08:20:45;;;;;;;9.33;2.90;;;;;;;;;;5055226;28;20425;-77
2021/08/01 08:23:11;;;;;;;5.50;3.10;;;;;;;;;;5055896;28;20514;-77
2021/08/01 08:25:37;;;;;;;8.70;3.10;;;;;;;;;;5056045;28;20456;-77
2021/08/01 08:28:03;;;;;;;4.97;2.77;;;;;;;;;;5055958;28;20412;-77
2021/08/01 08:30:29;;;;;;;3.67;2.47;;;;;;;;;;5056080;28;20383;-77
2021/08/01 08:32:55;;;;;;;3.13;2.83;;;;;;;;;;5055664;28;20888;-77
2021/08/01 08:35:21;;;;;;;3.87;2.77;;;;;;;;;;5055859;28;20505;-76
2021/08/01 08:37:49;;;;;;;5.93;2.50;;;;;;;;;;5055947;28;20423;-76
2021/08/01 08:40:15;;;;;;;4.20;2.20;;;;;;;;;;5055963;28;20423;-77
2021/08/01 08:42:43;;;;;;;2.23;1.97;;;;;;;;;;5055726;28;20807;-77
2021/08/01 08:45:09;;;;;;;2.67;2.13;;;;;;;;;;5055708;28;20443;-77
2021/08/01 08:47:37;;;;;;;5.17;2.10;;;;;;;;;;5054402;28;20492;-76
2021/08/01 08:50:03;;;;;;;5.53;1.93;;;;;;;;;;5055699;28;20494;-76
2021/08/01 08:52:33;;;;;;;4.50;2.73;;;;;;;;;;5054439;28;21035;-76
2021/08/01 08:55:03;;;;;;;5.10;2.70;;;;;;;;;;5054205;28;20891;-76
2021/08/01 08:57:31;;;;;;;3.90;2.30;;;;;;;;;;5055055;28;20420;-76
2021/08/01 09:00:03;;;;;;;3.57;2.30;;;;;;;;;;5054973;28;20408;-76
2021/08/01 09:02:29;;;;;;;2.23;1.80;;;;;;;;;;5055210;28;20420;-77
2021/08/01 09:04:57;;;;;;;2.17;2.07;;;;;;;;;;5054968;28;20936;-77
2021/08/01 09:07:23;;;;;;;4.00;2.70;;;;;;;;;;5053780;28;20480;-77
2021/08/01 09:09:49;;;;;;;2.00;1.63;;;;;;;;;;5055448;28;20408;-77
2021/08/01 09:12:15;;;;;;;3.50;2.40;;;;;;;;;;5054230;28;20379;-77
2021/08/01 09:14:41;;;;;;;3.83;2.33;;;;;;;;;;5054724;28;20553;-77
2021/08/01 09:17:07;;;;;;;9.03;2.60;;;;;;;;;;5055462;28;20387;-77
2021/08/01 09:19:35;;;;;;;3.30;2.40;;;;;;;;;;5055217;28;20412;-77
2021/08/01 09:22:12;;;;;;;7.50;3.30;;;;;;;;;;5055515;28;20424;-77
2021/08/01 09:24:38;;;;;;;4.63;2.83;;;;;;;;;;5054725;28;20749;-77
2021/08/01 09:27:05;;;;;;;5.30;3.10;;;;;;;;;;5055128;28;20452;-77
2021/08/01 09:29:31;;;;;;;2.20;1.90;;;;;;;;;;5053649;28;20928;-76
2021/08/01 09:32:01;;;;;;;3.83;1.80;;;;;;;;;;5055178;28;20445;-77
2021/08/01 09:34:28;;;;;;;5.87;2.80;;;;;;;;;;5054608;28;20920;-79
2021/08/01 09:36:58;;;;;;;4.80;2.80;;;;;;;;;;5055118;28;20410;-77
2021/08/01 09:39:24;;;;;;;7.60;2.50;;;;;;;;;;5055079;28;20764;-78
2021/08/01 09:41:59;;;;;;;2.73;2.07;;;;;;;;;;5055014;28;20400;-77
2021/08/01 09:44:25;;;;;;;6.30;2.50;;;;;;;;;;5054464;28;20435;-76
2021/08/01 09:46:55;;;;;;;3.30;2.40;;;;;;;;;;5054617;28;20468;-77
2021/08/01 09:49:22;;;;;;;5.07;2.97;;;;;;;;;;5052799;28;20386;-77
2021/08/01 09:51:52;;;;;;;7.67;3.10;;;;;;;;;;5053836;28;20405;-78
2021/08/01 09:54:19;;;;;;;3.23;2.63;;;;;;;;;;5054358;28;20396;-77
2021/08/01 09:56:55;;;;;;;5.90;2.90;;;;;;;;;;5054194;28;20398;-77
2021/08/01 09:59:22;;;;;;;6.27;3.13;;;;;;;;;;5054334;28;20516;-77
2021/08/01 10:01:49;;;;;;;3.33;2.23;;;;;;;;;;5052512;28;20424;-77
2021/08/01 10:04:22;;;;;;;3.97;2.50;;;;;;;;;;5053955;28;20386;-77
2021/08/01 10:07:00;;;;;;;2.70;2.40;;;;;;;;;;5054228;28;20940;-77
2021/08/01 10:09:26;;;;;;;3.80;2.43;;;;;;;;;;5054369;28;20419;-78
2021/08/01 10:11:53;;;;;;;6.57;2.40;;;;;;;;;;5054103;28;20507;-77
2021/08/01 10:14:20;;;;;;;5.80;2.20;;;;;;;;;;5053755;28;20555;-77
2021/08/01 10:16:46;;;;;;;3.33;1.87;;;;;;;;;;5053996;28;20873;-77
2021/08/01 10:19:12;;;;;;;2.80;1.80;;;;;;;;;;5054111;28;20514;-76
2021/08/01 10:21:39;;;;;;;2.90;1.97;;;;;;;;;;5054034;28;20408;-77
2021/08/01 10:24:06;;;;;;;3.37;2.20;;;;;;;;;;5053427;28;20419;-77
2021/08/01 10:26:35;;;;;;;2.60;2.20;;;;;;;;;;5053006;28;20972;-77
2021/08/01 10:29:03;;;;;;;4.37;2.20;;;;;;;;;;5053671;28;20422;-78
2021/08/01 10:31:40;;;;;;;4.67;2.17;;;;;;;;;;5053770;28;20477;-78
2021/08/01 10:34:38;;;;;;;6.53;2.80;;;;;;;;;;5053369;28;20411;-77
2021/08/01 10:37:06;;;;;;;3.50;2.47;;;;;;;;;;5020300;28;20431;-77
2021/08/01 10:39:36;;;;;;;6.00;2.70;;;;;;;;;;5053659;28;20414;-78
2021/08/01 10:42:06;;;;;;;2.87;2.50;;;;;;;;;;5053439;28;20405;-77
2021/08/01 10:44:32;;;;;;;5.50;2.70;;;;;;;;;;5053232;28;20424;-78
2021/08/01 10:47:04;;;;;;;5.83;2.40;;;;;;;;;;5053452;28;20471;-77
2021/08/01 10:49:30;;;;;;;4.53;2.60;;;;;;;;;;5053423;28;20412;-78
2021/08/01 10:51:59;;;;;;;4.13;3.50;;;;;;;;;;5053381;28;20387;-77
2021/08/01 10:54:30;;;;;;;2.90;2.40;;;;;;;;;;5052876;28;20439;-77
2021/08/01 10:57:15;;;;;;;2.60;2.40;;;;;;;;;;5053369;28;20436;-77
2021/08/01 10:59:44;;;;;;;2.70;2.20;;;;;;;;;;5053332;28;20473;-77
2021/08/01 11:02:12;;;;;;;3.07;2.33;;;;;;;;;;5053038;28;20457;-77
2021/08/01 11:04:38;;;;;;;2.93;2.63;;;;;;;;;;5052928;28;20515;-77
2021/08/01 11:07:04;;;;;;;2.87;2.50;;;;;;;;;;5053151;28;20841;-78
2021/08/01 11:09:30;;;;;;;3.17;2.60;;;;;;;;;;5051921;28;20435;-77
2021/08/01 11:12:15;;;;;;;3.90;2.77;;;;;;;;;;5053060;28;20408;-77
2021/08/01 11:14:51;;;;;;;6.10;2.40;;;;;;;;;;5052655;28;20423;-77
2021/08/01 11:17:17;;;;;;;3.93;2.57;;;;;;;;;;5053189;28;20764;-78
2021/08/01 11:19:44;;;;;;;3.20;2.70;;;;;;;;;;5053227;28;20385;-78
2021/08/01 11:22:29;;;;;;;4.20;2.60;;;;;;;;;;5052948;28;20416;-77
2021/08/01 11:25:13;;;;;;;3.13;2.07;;;;;;;;;;5052326;28;20772;-77
2021/08/01 11:27:39;;;;;;;3.30;2.57;;;;;;;;;;5051534;28;20467;-78
2021/08/01 11:30:05;;;;;;;5.10;3.20;;;;;;;;;;5052612;28;20387;-79
2021/08/01 11:32:51;;;;;;;2.97;2.03;;;;;;;;;;5051629;28;20405;-77
2021/08/01 11:35:18;;;;;;;3.77;2.53;;;;;;;;;;5051768;28;20484;-77
2021/08/01 11:37:44;;;;;;;2.30;1.83;;;;;;;;;;5054147;28;20404;-76
2021/08/01 11:40:12;;;;;;;3.87;2.50;;;;;;;;;;5057151;28;20777;-77
2021/08/01 11:42:39;;;;;;;4.10;2.30;;;;;;;;;;5056886;28;20416;-77
2021/08/01 11:45:06;;;;;;;2.77;2.50;;;;;;;;;;5055448;28;20449;-78
2021/08/01 11:47:43;;;;;;;5.50;2.67;;;;;;;;;;5055540;28;20877;-79
2021/08/01 11:50:09;;;;;;;3.00;2.53;;;;;;;;;;5056812;28;20834;-79
2021/08/01 11:52:45;;;;;;;4.57;2.83;;;;;;;;;;5056244;28;20431;-78
2021/08/01 11:55:19;;;;;;;2.80;2.13;;;;;;;;;;5040673;28;20428;-77
2021/08/01 11:57:46;;;;;;;5.03;2.50;;;;;;;;;;5052931;28;20952;-78
2021/08/01 12:00:13;;;;;;;3.10;2.50;;;;;;;;;;5056384;28;20466;-79
2021/08/01 12:02:39;;;;;;;5.30;2.40;;;;;;;;;;5056355;28;20416;-78
2021/08/01 12:05:05;;;;;;;2.60;2.40;;;;;;;;;;5054891;28;20447;-80
2021/08/01 12:07:39;;;;;;;5.33;2.60;;;;;;;;;;5054915;28;20441;-78
2021/08/01 12:10:15;;;;;;;4.10;2.70;;;;;;;;;;5056474;28;20382;-79
2021/08/01 12:12:41;;;;;;;5.30;2.73;;;;;;;;;;5056094;28;20843;-76
2021/08/01 12:15:07;;;;;;;3.30;2.13;;;;;;;;;;5054332;28;20943;-76
2021/08/01 12:17:36;;;;;;;3.00;2.70;;;;;;;;;;5055833;28;20526;-76
2021/08/01 12:20:03;;;;;;;3.97;2.30;;;;;;;;;;5055890;28;20411;-76
2021/08/01 12:22:29;;;;;;;5.30;3.23;;;;;;;;;;5056265;28;20415;-77
2021/08/01 12:24:57;;;;;;;5.73;2.30;;;;;;;;;;5055600;28;20462;-76
2021/08/01 12:27:23;;;;;;;3.83;2.30;;;;;;;;;;5056171;28;20960;-79
2021/08/01 12:30:07;;;;;;;3.90;2.80;;;;;;;;;;5055981;28;20400;-79
2021/08/01 12:32:42;;;;;;;2.83;2.57;;;;;;;;;;5056229;28;20400;-79
2021/08/01 12:35:19;;;;;;;3.33;2.27;;;;;;;;;;5054587;28;20410;-79
2021/08/01 12:37:46;;;;;;;5.80;2.60;;;;;;;;;;5054588;28;20458;-78
2021/08/01 12:40:28;;;;;;;3.63;2.10;;;;;;;;;;5054837;28;20386;-79
2021/08/01 12:42:55;;;;;;;2.80;2.10;;;;;;;;;;5055689;28;20404;-78
2021/08/01 12:45:22;;;;;;;3.27;2.17;;;;;;;;;;5054227;28;20433;-79
2021/08/01 12:47:48;;;;;;;6.17;2.13;;;;;;;;;;5055360;28;20459;-80
2021/08/01 12:50:17;;;;;;;2.30;2.10;;;;;;;;;;5055536;28;20379;-81
2021/08/01 12:52:43;;;;;;;2.93;1.90;;;;;;;;;;5056948;28;20916;-79
2021/08/01 12:55:10;;;;;;;3.83;1.93;;;;;;;;;;5055745;28;20447;-79
2021/08/01 12:57:56;;;;;;;4.93;2.80;;;;;;;;;;5053970;28;20405;-81
2021/08/01 13:00:24;;;;;;;4.50;3.07;;;;;;;;;;5054054;28;20430;-79
2021/08/01 13:02:54;;;;;;;3.67;3.03;;;;;;;;;;5052873;28;20398;-79
2021/08/01 13:05:21;;;;;;;4.50;3.13;;;;;;;;;;5051088;28;20414;-80
2021/08/01 13:07:47;;;;;;;4.40;3.23;;;;;;;;;;5052481;28;20459;-80
2021/08/01 13:10:14;;;;;;;4.47;2.67;;;;;;;;;;5053993;28;20499;-77
2021/08/01 13:12:40;;;;;;;8.73;3.13;;;;;;;;;;5053194;28;20391;-77
2021/08/01 13:15:26;;;;;;;2.83;2.30;;;;;;;;;;5052770;28;20428;-77
2021/08/01 13:17:52;;;;;;;5.90;2.87;;;;;;;;;;5052962;28;20475;-76
2021/08/01 13:20:33;;;;;;;3.87;2.10;;;;;;;;;;5054015;28;20436;-77
2021/08/01 13:23:00;;;;;;;2.60;1.90;;;;;;;;;;5052805;28;20428;-77
2021/08/01 13:25:33;;;;;;;2.77;2.03;;;;;;;;;;5053650;28;20410;-77
2021/08/01 13:27:59;;;;;;;2.50;2.30;;;;;;;;;;5053707;28;20435;-76
2021/08/01 13:30:25;;;;;;;2.37;2.17;;;;;;;;;;5052010;28;20497;-77
2021/08/01 13:32:51;;;;;;;2.80;2.27;;;;;;;;;;5052439;28;20493;-76
2021/08/01 13:35:21;;;;;;;3.60;2.50;;;;;;;;;;5053315;28;20442;-76
2021/08/01 13:38:00;;;;;;;3.30;2.60;;;;;;;;;;5052630;28;20462;-77
2021/08/01 13:40:31;;;;;;;3.73;2.57;;;;;;;;;;5053314;28;21981;-77
2021/08/01 13:42:57;;;;;;;3.57;2.30;;;;;;;;;;5050357;28;20418;-77
2021/08/01 13:45:27;;;;;;;3.53;2.70;;;;;;;;;;5052601;28;20442;-77
2021/08/01 13:47:54;;;;;;;6.40;2.80;;;;;;;;;;5050511;28;20456;-77
2021/08/01 13:50:21;;;;;;;3.97;2.50;;;;;;;;;;5052488;28;20507;-77
2021/08/01 13:52:48;;;;;;;4.33;2.80;;;;;;;;;;5052155;28;20782;-80
2021/08/01 13:55:14;;;;;;;4.10;2.90;;;;;;;;;;5054023;28;20481;-79
2021/08/01 13:57:41;;;;;;;5.70;2.97;;;;;;;;;;5052120;28;20431;-80
2021/08/01 14:00:08;;;;;;;5.90;2.87;;;;;;;;;;5051872;28;20424;-80
2021/08/01 14:02:37;;;;;;;4.10;2.33;;;;;;;;;;5052799;28;20459;-79
2021/08/01 14:05:04;;;;;;;5.55;2.90;;;;;;;;;;5052386;28;20423;-80
2021/08/01 14:07:30;;;;;;;5.80;3.47;;;;;;;;;;5052453;28;20633;-79
2021/08/01 14:09:56;;;;;;;5.33;3.23;;;;;;;;;;5052066;28;20459;-79
2021/08/01 14:12:23;;;;;;;4.47;2.97;;;;;;;;;;5051485;28;20424;-79
2021/08/01 14:14:49;;;;;;;2.80;2.37;;;;;;;;;;5052254;28;20444;-79
2021/08/01 14:17:15;;;;;;;4.00;2.90;;;;;;;;;;5052643;28;20413;-79
2021/08/01 14:19:41;;;;;;;3.67;3.00;;;;;;;;;;5052911;28;20763;-79
2021/08/01 14:22:08;;;;;;;5.30;3.00;;;;;;;;;;5051839;28;20413;-79
2021/08/01 14:24:34;;;;;;;3.80;2.50;;;;;;;;;;5052388;28;20436;-77
2021/08/01 14:27:01;;;;;;;3.80;3.47;;;;;;;;;;5051137;28;21013;-78
2021/08/01 14:29:29;;;;;;;3.20;2.90;;;;;;;;;;5051759;28;20405;-79
2021/08/01 14:31:55;;;;;;;9.37;4.53;;;;;;;;;;5052252;28;20430;-79
2021/08/01 14:34:23;;;;;;;3.30;2.90;;;;;;;;;;5052379;28;20428;-79
2021/08/01 14:36:49;;;;;;;3.80;3.30;;;;;;;;;;5051708;28;20451;-80
2021/08/01 14:39:16;;;;;;;4.50;3.70;;;;;;;;;;5051521;28;20527;-81
2021/08/01 14:41:42;;;;;;;6.83;4.30;;;;;;;;;;5052129;28;20447;-81
2021/08/01 14:44:09;;;;;;;3.93;3.53;;;;;;;;;;5051567;28;20427;-78
2021/08/01 14:46:35;;;;;;;2.77;2.57;;;;;;;;;;5050500;28;20491;-80
2021/08/01 14:49:09;;;;;;;3.50;3.20;;;;;;;;;;5052320;28;20419;-84
2021/08/01 14:54:20;;;;;;;4.97;3.17;;;;;;;;;;5053792;28;20465;-80
2021/08/01 14:56:58;;;;;;;3.20;2.90;;;;;;;;;;5065844;28;20915;-80
2021/08/01 14:59:25;;;;;;;3.33;3.03;;;;;;;;;;5071150;28;20419;-81
2021/08/01 15:01:56;;;;;;;3.77;3.47;;;;;;;;;;5071506;28;20522;-82
2021/08/01 15:04:28;;;;;;;3.90;3.20;;;;;;;;;;5070135;28;20401;-81
2021/08/01 15:06:57;;;;;;;3.53;3.23;;;;;;;;;;5071718;28;20466;-82
2021/08/01 15:09:25;;;;;;;4.77;3.20;;;;;;;;;;5071999;28;20892;-81
2021/08/01 15:11:54;;;;;;;3.20;2.90;;;;;;;;;;5070881;28;20994;-80
2021/08/01 15:14:23;;;;;;;4.97;3.20;;;;;;;;;;5071570;28;20407;-81
2021/08/01 15:16:52;;;;;;;3.40;2.97;;;;;;;;;;5071764;28;20427;-83
2021/08/01 15:19:20;;;;;;;3.53;3.23;;;;;;;;;;5069914;28;20401;-82
2021/08/01 15:21:50;;;;;;;3.30;3.00;;;;;;;;;;5071572;28;20897;-80
2021/08/01 15:24:16;;;;;;;3.70;3.40;;;;;;;;;;5045736;28;20743;-81